createdAt,value
2023-02-27T00:03:16.473Z,100509.88
2023-02-27T00:13:20.378Z,100514.23
2023-02-27T00:23:24.827Z,100523.83
2023-02-27T00:33:29.726Z,100531.09
2023-02-27T00:43:35.278Z,100542.27
2023-02-27T00:53:38.962Z,100551.02
2023-02-27T01:03:42.922Z,100566.11
2023-02-27T01:13:48.837Z,100581.27
2023-02-27T01:23:53.777Z,100587.90
2023-02-27T01:33:58.309Z,100598.14
2023-02-27T01:44:14.309Z,100607.00
2023-02-27T01:54:24.785Z,100606.23
2023-02-27T02:04:33.362Z,100611.96
2023-02-27T02:14:39.793Z,100616.34
2023-02-27T02:25:21.146Z,100616.71
2023-02-27T02:35:30.838Z,100619.14
2023-02-27T02:45:44.477Z,100636.85
2023-02-27T02:55:57.862Z,100652.45
2023-02-27T03:06:08.729Z,100659.21
2023-02-27T03:16:25.483Z,100664.25
2023-02-27T03:26:36.666Z,100674.70
2023-02-27T03:37:10.545Z,100688.75
2023-02-27T03:47:15.039Z,100701.95
2023-02-27T03:57:20.985Z,100717.91
2023-02-27T04:07:43.050Z,100726.59
2023-02-27T04:18:23.501Z,100742.20
2023-02-27T04:28:49.134Z,100745.05
2023-02-27T04:38:56.639Z,100747.29
2023-02-27T04:49:11.204Z,100750.69
2023-02-27T04:59:25.292Z,100763.98
2023-02-27T05:09:41.365Z,100784.61
2023-02-27T05:19:47.239Z,100790.05
2023-02-27T05:29:53.800Z,100797.61
2023-02-27T05:40:02.561Z,100812.02
2023-02-27T05:50:22.348Z,100829.38
2023-02-27T06:00:38.130Z,100845.40
2023-02-27T06:10:42.044Z,100858.78
2023-02-27T06:20:47.254Z,100870.15
2023-02-27T06:30:55.458Z,100872.07
2023-02-27T06:41:00.898Z,100880.31
2023-02-27T06:51:05.180Z,100892.60
2023-02-27T07:01:08.970Z,100898.79
2023-02-27T07:11:12.602Z,100893.04
2023-02-27T07:21:20.782Z,100909.61
2023-02-27T07:31:24.553Z,100912.98
2023-02-27T07:41:31.007Z,100926.69
2023-02-27T07:51:37.955Z,100928.75
2023-02-27T08:01:48.459Z,100940.19
2023-02-27T08:11:52.143Z,100958.84
2023-02-27T08:21:55.685Z,100969.73
2023-02-27T08:32:02.720Z,100971.41
2023-02-27T08:42:07.408Z,100987.39
2023-02-27T08:52:11.070Z,100985.84
2023-02-27T09:02:15.026Z,101003.12
2023-02-27T09:12:18.593Z,101017.95
2023-02-27T09:22:22.363Z,101029.04
2023-02-27T09:32:27.692Z,101029.98
2023-02-27T09:42:46.581Z,101039.26
2023-02-27T09:52:50.656Z,101044.96
2023-02-27T10:03:05.339Z,101042.69
2023-02-27T10:13:49.576Z,101047.63
2023-02-27T10:24:33.482Z,101063.55
2023-02-27T10:34:41.900Z,101060.14
2023-02-27T10:44:48.362Z,101065.32
2023-02-27T10:54:53.852Z,101065.98
2023-02-27T11:05:01.096Z,101073.60
2023-02-27T11:15:14.965Z,101070.27
2023-02-27T11:25:23.923Z,101086.34
2023-02-27T11:35:57.406Z,101080.84
2023-02-27T11:46:33.236Z,101078.46
2023-02-27T11:56:44.323Z,101070.09
2023-02-27T12:06:58.585Z,101074.43
2023-02-27T12:17:20.599Z,101076.07
2023-02-27T12:27:34.106Z,101073.98
2023-02-27T12:37:38.228Z,101082.02
2023-02-27T12:47:59.929Z,101089.55
2023-02-27T12:58:23.831Z,101097.09
2023-02-27T13:08:41.022Z,101103.31
2023-02-27T13:19:09.638Z,101102.86
2023-02-27T13:29:17.481Z,101112.77
2023-02-27T13:39:47.911Z,101117.20
2023-02-27T13:49:52.965Z,101121.63
2023-02-27T14:00:05.162Z,101127.86
2023-02-27T14:10:24.868Z,101126.02
2023-02-27T14:20:30.527Z,101139.98
2023-02-27T14:30:52.477Z,101132.69
2023-02-27T14:41:22.554Z,101140.38
2023-02-27T14:51:27.129Z,101154.35
2023-02-27T15:01:36.092Z,101156.81
2023-02-27T15:11:44.819Z,101161.80
2023-02-27T15:21:59.866Z,101169.20
2023-02-27T15:32:05.475Z,101167.60
2023-02-27T15:42:13.401Z,101168.95
2023-02-27T15:52:26.333Z,101179.08
2023-02-27T16:02:47.822Z,101179.46
2023-02-27T16:12:51.501Z,101193.80
2023-02-27T16:23:08.024Z,101205.13
2023-02-27T16:33:21.816Z,101221.30
2023-02-27T16:43:25.435Z,101233.38
2023-02-27T16:53:29.396Z,101244.44
2023-02-27T17:03:33.541Z,101263.52
2023-02-27T17:13:38.387Z,101279.69
2023-02-27T17:23:42.240Z,101287.73
2023-02-27T17:33:45.808Z,101296.77
2023-02-27T17:43:55.553Z,101308.67
2023-02-27T17:54:06.961Z,101314.08
2023-02-27T18:04:11.662Z,101321.34
2023-02-27T18:14:15.883Z,101327.31
2023-02-27T18:24:19.742Z,101325.35
2023-02-27T18:34:23.922Z,101335.34
2023-02-27T18:44:28.063Z,101345.00
2023-02-27T18:54:31.806Z,101346.13
2023-02-27T19:04:35.652Z,101356.57
2023-02-27T19:14:39.804Z,101369.04
2023-02-27T19:24:44.644Z,101380.39
2023-02-27T19:34:48.413Z,101387.92
2023-02-27T19:44:52.787Z,101395.42
2023-02-27T19:54:58.982Z,101403.09
2023-02-27T20:05:03.479Z,101414.17
2023-02-27T20:15:11.748Z,101421.33
2023-02-27T20:25:18.476Z,101430.81
2023-02-27T20:35:22.215Z,101438.64
2023-02-27T20:45:30.350Z,101444.48
2023-02-27T20:55:34.008Z,101447.35
2023-02-27T21:05:37.755Z,101446.90
2023-02-27T21:15:43.196Z,101452.34
2023-02-27T21:25:48.446Z,101457.41
2023-02-27T21:35:52.295Z,101458.15
2023-02-27T21:45:56.219Z,101462.98
2023-02-27T21:56:08.410Z,101463.98
2023-02-27T22:06:16.216Z,101464.77
2023-02-27T22:16:21.389Z,101468.17
2023-02-27T22:26:29.580Z,101463.85
2023-02-27T22:36:35.261Z,101467.03
2023-02-27T22:46:46.550Z,101466.39
2023-02-27T22:56:52.226Z,101469.67
2023-02-27T23:06:56.524Z,101470.24
2023-02-27T23:17:00.715Z,101475.16
2023-02-27T23:27:16.395Z,101466.63
2023-02-27T23:37:28.593Z,101466.55
2023-02-27T23:47:52.184Z,101467.71
2023-02-27T23:57:58.797Z,101476.05
